Time;durP1;ratioP1;P1;durP2;ratioP2;P2;SDS_P1;SDS_P2;PMS_P1;PMS_P2;Temp;Humidity;BMP_temperature;BMP_pressure;BME280_temperature;BME280_humidity;BME280_pressure;Samples;Min_cycle;Max_cycle;Signal;HPM_P1;HPM_P2
2024/01/16 00:01:44;;;;;;;16.43;7.00;;;;;;;3.14;100.00;63248.00;5052059;28;20621;-55
2024/01/16 00:04:10;;;;;;;11.20;6.73;;;;;;;2.89;100.00;63220.84;5052146;28;20209;-54
2024/01/16 00:06:42;;;;;;;13.57;7.40;;;;;;;2.86;100.00;63220.09;5052315;28;20264;-55
2024/01/16 00:09:12;;;;;;;14.47;8.07;;;;;;;3.16;100.00;63252.69;5052115;28;20213;-53
2024/01/16 00:11:44;;;;;;;12.80;8.50;;;;;;;2.69;100.00;63199.16;5052158;28;20197;-53
2024/01/16 00:14:10;;;;;;;13.43;8.17;;;;;;;2.73;100.00;63205.44;5049939;28;20204;-53
2024/01/16 00:16:47;;;;;;;11.30;6.93;;;;;;;2.65;100.00;63197.28;5049848;28;20232;-53
2024/01/16 00:19:13;;;;;;;14.43;8.40;;;;;;;2.60;100.00;63193.81;5050231;28;20188;-54
2024/01/16 00:21:45;;;;;;;15.50;7.57;;;;;;;2.95;100.00;63224.88;5032190;28;20203;-61
2024/01/16 00:26:55;;;;;;;12.93;7.00;;;;;;;3.38;100.00;63274.09;5050293;28;20256;-54
2024/01/16 00:29:20;;;;;;;12.50;6.70;;;;;;;3.35;100.00;63270.81;5051741;28;20225;-54
2024/01/16 00:31:46;;;;;;;11.63;6.73;;;;;;;3.16;100.00;63252.69;5051919;28;20217;-55
2024/01/16 00:34:11;;;;;;;13.47;7.03;;;;;;;3.37;100.00;63273.00;5051624;28;20189;-55
2024/01/16 00:36:37;;;;;;;12.00;6.03;;;;;;;3.51;98.39;63287.13;5051787;28;20656;-53
2024/01/16 00:39:03;;;;;;;13.63;6.63;;;;;;;3.34;100.00;63272.22;5051703;28;20196;-53
2024/01/16 00:41:30;;;;;;;11.67;6.20;;;;;;;3.10;100.00;63241.19;5051506;28;20271;-53
2024/01/16 00:43:55;;;;;;;11.10;6.60;;;;;;;3.24;100.00;63256.38;5033941;28;20191;-54
2024/01/16 00:46:21;;;;;;;13.67;6.70;;;;;;;3.26;100.00;63261.06;5051304;28;20210;-54
2024/01/16 00:48:47;;;;;;;9.93;6.67;;;;;;;3.58;100.00;63297.22;5051241;28;20300;-54
2024/01/16 00:51:13;;;;;;;8.70;5.60;;;;;;;3.71;98.48;63309.41;5051389;28;20644;-54
2024/01/16 00:53:42;;;;;;;9.53;5.87;;;;;;;3.84;99.02;63326.00;5050636;28;20212;-59
2024/01/16 00:56:08;;;;;;;10.97;5.63;;;;;;;3.97;97.50;63339.59;5051495;28;20666;-55
2024/01/16 00:58:34;;;;;;;13.37;5.97;;;;;;;3.90;96.73;63329.50;5051418;28;20224;-53
2024/01/16 01:00:59;;;;;;;10.23;6.03;;;;;;;3.62;99.72;63302.09;5051317;28;20194;-53
2024/01/16 01:03:25;;;;;;;10.10;5.87;;;;;;;3.75;100.00;63313.75;5033307;28;20217;-53
2024/01/16 01:05:51;;;;;;;7.93;5.17;;;;;;;3.80;99.12;63319.16;5033500;28;20666;-53
2024/01/16 01:08:17;;;;;;;10.87;6.10;;;;;;;3.50;100.00;63288.50;5051088;28;20254;-55
2024/01/16 01:10:43;;;;;;;9.80;5.83;;;;;;;3.51;100.00;63292.09;5033129;28;20195;-54
2024/01/16 01:13:08;;;;;;;9.23;6.40;;;;;;;3.40;100.00;63278.19;5051342;28;20562;-54
2024/01/16 01:15:34;;;;;;;11.67;6.73;;;;;;;3.63;100.00;63303.19;5050957;28;20566;-55
2024/01/16 01:18:00;;;;;;;9.83;6.57;;;;;;;3.68;100.00;63308.63;5050865;28;20537;-54
2024/01/16 01:20:26;;;;;;;12.67;6.23;;;;;;;3.68;100.00;63308.06;5051238;28;20194;-54
2024/01/16 01:22:52;;;;;;;9.83;6.03;;;;;;;3.85;100.00;63327.09;5033073;28;20315;-55
2024/01/16 01:25:18;;;;;;;12.37;6.93;;;;;;;4.04;100.00;63345.25;5050777;28;20182;-58
2024/01/16 01:27:43;;;;;;;10.37;6.30;;;;;;;3.71;100.00;63309.41;5049866;28;20310;-55
2024/01/16 01:30:12;;;;;;;11.87;6.23;;;;;;;4.03;100.00;63346.69;5048974;28;20217;-53
2024/01/16 01:32:39;;;;;;;9.60;6.17;;;;;;;4.03;98.62;63346.13;5048683;28;20229;-53
2024/01/16 01:35:05;;;;;;;8.87;6.10;;;;;;;4.10;98.12;63351.25;5050806;28;20181;-53
2024/01/16 01:37:31;;;;;;;9.03;6.27;;;;;;;4.25;96.13;63370.03;5051003;28;20209;-55
2024/01/16 01:39:57;;;;;;;13.00;6.80;;;;;;;4.22;95.75;63367.31;5049830;28;20195;-54
2024/01/16 01:42:23;;;;;;;11.87;7.17;;;;;;;3.80;96.86;63321.13;5032935;28;20223;-53
2024/01/16 01:44:48;;;;;;;11.77;7.20;;;;;;;4.06;98.12;63347.44;5050683;28;20642;-53
2024/01/16 01:47:14;;;;;;;12.37;6.53;;;;;;;4.23;97.06;63365.38;5050748;28;20286;-52
2024/01/16 01:49:40;;;;;;;7.70;5.97;;;;;;;4.11;98.50;63352.34;5050624;28;20193;-55
2024/01/16 01:52:07;;;;;;;11.63;7.73;;;;;;;4.14;99.06;63358.09;5050545;28;20221;-55
2024/01/16 01:54:36;;;;;;;11.50;6.20;;;;;;;4.14;98.97;63358.09;5050681;28;20214;-53
2024/01/16 01:57:02;;;;;;;11.43;6.60;;;;;;;3.94;100.00;63333.88;5050436;28;20215;-53
2024/01/16 01:59:31;;;;;;;11.13;6.80;;;;;;;4.13;100.00;63357.00;5050663;28;20235;-53
2024/01/16 02:01:57;;;;;;;10.77;7.07;;;;;;;4.21;99.61;63365.69;5050420;28;20239;-55
2024/01/16 02:04:24;;;;;;;9.93;5.57;;;;;;;4.21;99.90;63365.69;5051204;28;20193;-54
2024/01/16 02:06:50;;;;;;;12.70;6.63;;;;;;;4.37;99.25;63383.09;5053944;28;20233;-54
2024/01/16 02:09:16;;;;;;;11.30;6.40;;;;;;;4.32;99.81;63377.66;5053806;28;20311;-54
2024/01/16 02:11:44;;;;;;;10.63;6.17;;;;;;;4.23;100.00;63365.94;5054125;28;20666;-55
2024/01/16 02:14:11;;;;;;;8.50;5.77;;;;;;;4.23;100.00;63365.38;5053893;28;20213;-55
2024/01/16 02:16:39;;;;;;;11.00;6.17;;;;;;;4.42;99.64;63390.50;5053816;28;20244;-54
2024/01/16 02:19:07;;;;;;;9.87;6.10;;;;;;;4.37;99.88;63383.09;5036270;28;20230;-54
2024/01/16 02:21:39;;;;;;;10.47;6.20;;;;;;;4.34;100.00;63379.84;5035712;28;20258;-54
2024/01/16 02:24:09;;;;;;;11.47;5.67;;;;;;;4.40;100.00;63386.38;5053653;28;20679;-55
2024/01/16 02:26:35;;;;;;;10.60;5.67;;;;;;;4.33;100.00;63378.75;5053637;28;20284;-53
2024/01/16 02:29:02;;;;;;;8.97;5.43;;;;;;;4.23;100.00;63365.94;5053655;28;20301;-54
2024/01/16 02:31:28;;;;;;;7.50;4.80;;;;;;;4.26;100.00;63371.16;5053624;28;20189;-54
2024/01/16 02:33:53;;;;;;;10.87;5.60;;;;;;;4.43;100.00;63387.13;5053628;28;20200;-55
2024/01/16 02:36:19;;;;;;;7.17;4.97;;;;;;;4.48;100.00;63395.06;5053450;28;20189;-55
2024/01/16 02:38:44;;;;;;;8.27;5.43;;;;;;;4.38;100.00;63384.19;5053711;28;20212;-53
2024/01/16 02:41:14;;;;;;;10.17;5.23;;;;;;;4.49;100.00;63391.16;5053593;28;20697;-54
2024/01/16 02:43:39;;;;;;;9.13;5.63;;;;;;;4.74;100.00;63423.34;5053313;28;20690;-53
2024/01/16 02:46:05;;;;;;;8.83;5.77;;;;;;;4.81;100.00;63430.97;5053529;28;20572;-53
2024/01/16 02:48:30;;;;;;;8.93;5.43;;;;;;;4.87;100.00;63437.47;5053229;28;20221;-56
2024/01/16 02:50:56;;;;;;;7.83;5.17;;;;;;;4.79;100.00;63428.22;5053144;28;20189;-54
2024/01/16 02:53:22;;;;;;;7.10;4.53;;;;;;;4.71;100.00;63417.03;5053193;28;20585;-53
2024/01/16 02:55:47;;;;;;;8.57;5.30;;;;;;;4.70;100.00;63415.97;5053406;28;20655;-53
2024/01/16 02:58:13;;;;;;;9.20;5.10;;;;;;;4.90;100.00;63440.22;5053159;28;20263;-54
2024/01/16 03:00:38;;;;;;;8.60;5.13;;;;;;;4.61;100.00;63408.66;5053161;28;20328;-52
2024/01/16 03:03:04;;;;;;;10.17;5.07;;;;;;;4.53;100.00;63398.00;5052977;28;20263;-53
2024/01/16 03:05:30;;;;;;;8.33;4.50;;;;;;;4.72;100.00;63420.63;5053055;28;20202;-53
2024/01/16 03:07:55;;;;;;;8.00;5.50;;;;;;;5.04;100.00;63453.50;5053281;28;20810;-54
2024/01/16 03:10:21;;;;;;;7.27;4.87;;;;;;;5.08;100.00;63457.84;5052891;28;20192;-55
2024/01/16 03:12:47;;;;;;;7.67;4.87;;;;;;;5.05;100.00;63457.06;5052772;28;20220;-54
2024/01/16 03:15:12;;;;;;;7.00;4.93;;;;;;;5.17;100.00;63466.56;5052402;28;20304;-54
2024/01/16 03:17:38;;;;;;;7.50;5.10;;;;;;;4.78;100.00;63427.16;5053166;28;20221;-53
2024/01/16 03:20:03;;;;;;;7.33;4.80;;;;;;;4.89;100.00;63439.66;5053020;28;20564;-56
2024/01/16 03:22:29;;;;;;;7.53;4.37;;;;;;;4.75;100.00;63421.38;5052634;28;20718;-54
2024/01/16 03:24:54;;;;;;;7.80;4.97;;;;;;;4.64;100.00;63411.91;5052758;28;20181;-54
2024/01/16 03:27:20;;;;;;;8.43;5.33;;;;;;;4.69;100.00;63417.91;5052568;28;20759;-53
2024/01/16 03:29:46;;;;;;;9.13;5.37;;;;;;;4.62;100.00;63409.75;5052625;28;20213;-53
2024/01/16 03:32:11;;;;;;;8.33;5.00;;;;;;;4.52;100.00;63396.38;5052873;28;20216;-53
2024/01/16 03:34:37;;;;;;;8.80;5.43;;;;;;;4.48;100.00;63395.06;5052590;28;20667;-53
2024/01/16 03:37:02;;;;;;;7.23;5.40;;;;;;;4.39;100.00;63380.28;5052869;28;20225;-55
2024/01/16 03:39:28;;;;;;;5.47;3.80;;;;;;;4.41;100.00;63384.94;5052789;28;20213;-54
2024/01/16 03:41:53;;;;;;;5.43;4.23;;;;;;;4.35;100.00;63378.44;5034705;28;20326;-57
2024/01/16 03:44:19;;;;;;;6.60;4.00;;;;;;;4.28;100.00;63370.81;5052524;28;20190;-54
2024/01/16 03:46:45;;;;;;;3.20;2.90;;;;;;;4.38;100.00;63383.66;5052608;28;20199;-55
2024/01/16 03:49:10;;;;;;;3.00;2.70;;;;;;;4.32;100.00;63377.66;5052793;28;20236;-53
2024/01/16 03:51:36;;;;;;;3.57;2.57;;;;;;;4.04;100.00;63345.25;5034754;28;20236;-54
2024/01/16 03:54:02;;;;;;;4.37;2.70;;;;;;;4.02;100.00;63342.56;5052302;28;20190;-53
2024/01/16 03:56:29;;;;;;;2.60;2.40;;;;;;;3.87;100.00;63326.78;5052302;28;20642;-52
2024/01/16 03:58:55;;;;;;;3.20;2.47;;;;;;;3.88;100.00;63327.34;5052573;28;20209;-52
2024/01/16 04:01:33;;;;;;;2.47;2.17;;;;;;;3.79;100.00;63320.59;5052399;28;20195;-56
2024/01/16 04:03:59;;;;;;;2.93;2.60;;;;;;;3.77;100.00;63318.41;5052081;28;20183;-54
2024/01/16 04:06:26;;;;;;;3.13;2.60;;;;;;;3.75;100.00;63315.69;5052245;28;20253;-54
2024/01/16 04:08:51;;;;;;;3.47;1.93;;;;;;;3.69;100.00;63309.16;5034403;28;20215;-54
2024/01/16 04:11:17;;;;;;;2.63;2.13;;;;;;;3.57;100.00;63293.63;5052131;28;20193;-54
2024/01/16 04:13:43;;;;;;;2.13;1.93;;;;;;;3.57;100.00;63291.16;5034111;28;20714;-55
2024/01/16 04:16:12;;;;;;;2.10;1.80;;;;;;;3.50;100.00;63286.03;5034131;28;20219;-53
2024/01/16 04:18:40;;;;;;;3.50;2.07;;;;;;;3.53;100.00;63291.78;5034132;28;20254;-53
2024/01/16 04:21:06;;;;;;;2.93;2.00;;;;;;;3.49;100.00;63284.94;5052022;28;20192;-52
2024/01/16 04:23:32;;;;;;;1.70;1.60;;;;;;;3.39;100.00;63275.16;5051908;28;20214;-52
2024/01/16 04:25:58;;;;;;;2.13;1.70;;;;;;;3.37;100.00;63272.47;5034225;28;20221;-53
2024/01/16 04:28:24;;;;;;;2.43;1.77;;;;;;;3.32;100.00;63269.50;5050701;28;20302;-54
2024/01/16 04:30:49;;;;;;;2.60;1.67;;;;;;;3.35;100.00;63273.31;5033913;28;20263;-54
2024/01/16 04:33:15;;;;;;;1.93;1.67;;;;;;;3.25;100.00;63259.44;5051696;28;20312;-53
2024/01/16 04:35:40;;;;;;;1.70;1.43;;;;;;;3.06;100.00;63241.81;5051673;28;20222;-54
2024/01/16 04:38:07;;;;;;;1.40;1.23;;;;;;;3.06;100.00;63241.81;5033960;28;20700;-58
2024/01/16 04:40:33;;;;;;;2.03;1.40;;;;;;;3.11;100.00;63247.25;5051474;28;20197;-52
2024/01/16 04:43:00;;;;;;;1.80;1.40;;;;;;;3.06;100.00;63243.75;5033946;28;20216;-51
2024/01/16 04:45:26;;;;;;;1.53;1.20;;;;;;;3.07;100.00;63239.88;5033606;28;20672;-52
2024/01/16 04:47:52;;;;;;;3.43;2.43;;;;;;;4.34;100.00;63376.81;5051444;28;20237;-54
2024/01/16 04:50:19;;;;;;;1.50;1.30;;;;;;;3.50;100.00;63289.06;5031875;28;20196;-52
2024/01/16 04:52:44;;;;;;;1.77;1.50;;;;;;;3.17;100.00;63251.25;5033626;28;20640;-52
2024/01/16 04:55:10;;;;;;;1.40;1.30;;;;;;;3.04;100.00;63239.09;5051249;28;20244;-53
2024/01/16 04:57:36;;;;;;;1.10;1.10;;;;;;;3.03;100.00;63238.56;5051315;28;20580;-53
2024/01/16 05:00:06;;;;;;;1.27;1.17;;;;;;;2.97;100.00;63231.50;5051317;28;20181;-55
2024/01/16 05:02:33;;;;;;;1.20;1.13;;;;;;;2.93;100.00;63227.69;5051543;28;20205;-52
2024/01/16 05:05:00;;;;;;;1.30;1.17;;;;;;;2.83;100.00;63216.84;5051150;28;20217;-54
2024/01/16 05:07:26;;;;;;;1.87;1.33;;;;;;;2.78;100.00;63210.88;5033526;28;20267;-52
2024/01/16 05:09:52;;;;;;;1.43;1.13;;;;;;;2.70;100.00;63202.72;5051074;28;21181;-53
2024/01/16 05:12:18;;;;;;;1.47;1.10;;;;;;;2.60;100.00;63188.84;5033196;28;20223;-52
2024/01/16 05:14:43;;;;;;;0.90;0.83;;;;;;;2.63;100.00;63195.13;5033257;28;20683;-53
2024/01/16 05:17:09;;;;;;;1.13;1.00;;;;;;;2.61;100.00;63192.94;5063146;22;20270;-54
2024/01/16 05:19:35;;;;;;;1.23;1.10;;;;;;;2.59;100.00;63188.28;5052980;28;20659;-52
2024/01/16 05:22:00;;;;;;;1.23;0.97;;;;;;;2.64;100.00;63198.16;5071088;28;20216;-55
2024/01/16 05:24:26;;;;;;;1.30;1.20;;;;;;;2.67;100.00;63201.94;5071021;28;20189;-56
2024/01/16 05:26:52;;;;;;;1.40;1.20;;;;;;;2.69;100.00;63201.09;5070832;28;20209;-54
2024/01/16 05:29:18;;;;;;;2.97;1.00;;;;;;;2.67;100.00;63196.97;5070833;28;20223;-54
2024/01/16 05:31:44;;;;;;;5.17;1.23;;;;;;;2.67;100.00;63193.97;5071131;28;20215;-57
2024/01/16 05:34:10;;;;;;;1.37;1.23;;;;;;;2.57;100.00;63188.59;5071030;28;20647;-53
2024/01/16 05:36:36;;;;;;;1.10;1.00;;;;;;;2.66;100.00;63200.88;5070852;28;20226;-54
2024/01/16 05:39:02;;;;;;;1.13;1.00;;;;;;;2.65;100.00;63196.75;5070654;28;20574;-53
2024/01/16 05:41:33;;;;;;;1.43;1.00;;;;;;;2.63;100.00;63192.09;5070540;28;20189;-53
2024/01/16 05:43:58;;;;;;;0.80;0.80;;;;;;;2.56;100.00;63188.06;5070814;28;20193;-54
2024/01/16 05:46:24;;;;;;;1.20;1.10;;;;;;;2.51;100.00;63179.63;5070472;28;20189;-53
2024/01/16 05:48:49;;;;;;;1.40;1.30;;;;;;;2.40;100.00;63170.69;5070652;28;20277;-51
2024/01/16 05:51:16;;;;;;;1.37;1.23;;;;;;;2.59;100.00;63190.25;5070690;28;20257;-53
2024/01/16 05:53:42;;;;;;;1.50;1.40;;;;;;;2.60;100.00;63191.31;5070529;28;20216;-55
2024/01/16 05:56:09;;;;;;;1.47;1.23;;;;;;;2.57;100.00;63186.13;5070714;28;20238;-54
2024/01/16 05:58:38;;;;;;;1.23;1.10;;;;;;;2.57;100.00;63191.09;5070600;28;20212;-54
2024/01/16 06:01:05;;;;;;;3.70;2.43;;;;;;;2.55;100.00;63186.44;5070496;28;20187;-53
2024/01/16 06:03:37;;;;;;;1.10;1.00;;;;;;;2.42;100.00;63169.84;5070495;28;20223;-54
2024/01/16 06:06:03;;;;;;;1.73;1.07;;;;;;;2.37;100.00;63167.44;5070553;28;20187;-54
2024/01/16 06:08:29;;;;;;;1.20;1.10;;;;;;;2.36;100.00;63165.81;5070269;28;20220;-53
2024/01/16 06:10:55;;;;;;;1.40;1.30;;;;;;;2.39;100.00;63167.13;5052583;28;20190;-54
2024/01/16 06:13:23;;;;;;;1.60;1.10;;;;;;;2.41;100.00;63169.31;5070301;28;20197;-54
2024/01/16 06:15:49;;;;;;;0.90;0.90;;;;;;;2.33;100.00;63162.56;5070299;28;20276;-54
2024/01/16 06:18:14;;;;;;;1.33;1.03;;;;;;;2.36;100.00;63165.81;5070060;28;20639;-56
2024/01/16 06:20:40;;;;;;;1.20;0.97;;;;;;;2.32;100.00;63159.00;5070261;28;20260;-57
2024/01/16 06:23:07;;;;;;;1.37;1.27;;;;;;;2.43;100.00;63173.41;5070374;28;20726;-54
2024/01/16 06:25:32;;;;;;;2.00;1.70;;;;;;;2.41;100.00;63171.78;5070177;28;20189;-54
2024/01/16 06:27:57;;;;;;;1.40;1.13;;;;;;;2.41;100.00;63173.72;5070127;28;20224;-57
2024/01/16 06:30:23;;;;;;;1.27;1.17;;;;;;;2.42;100.00;63169.84;5070238;28;20189;-53
2024/01/16 06:32:49;;;;;;;2.03;1.43;;;;;;;2.53;100.00;63184.25;5052085;28;20609;-54
2024/01/16 06:35:16;;;;;;;1.33;1.20;;;;;;;2.58;100.00;63187.22;5035679;28;20204;-53
2024/01/16 06:37:42;;;;;;;1.83;1.40;;;;;;;2.66;100.00;63195.91;5077767;22;20220;-54
2024/01/16 06:40:09;;;;;;;2.03;1.23;;;;;;;2.42;100.00;63172.88;5069439;28;20197;-54
2024/01/16 06:42:38;;;;;;;3.63;1.57;;;;;;;2.48;100.00;63174.41;5069021;28;20205;-57
2024/01/16 06:45:04;;;;;;;2.60;1.50;;;;;;;2.30;100.00;63159.84;5068665;28;20652;-55
2024/01/16 06:47:29;;;;;;;3.63;1.30;;;;;;;2.29;100.00;63155.75;5069013;28;20221;-56
2024/01/16 06:49:55;;;;;;;1.17;0.90;;;;;;;2.25;100.00;63151.41;5068722;28;20673;-56
2024/01/16 06:52:21;;;;;;;2.77;1.20;;;;;;;2.25;100.00;63154.44;5071731;28;20748;-55
2024/01/16 06:54:46;;;;;;;1.43;1.30;;;;;;;2.31;100.00;63160.94;5073230;28;20197;-55
2024/01/16 06:57:12;;;;;;;1.97;1.10;;;;;;;2.35;100.00;63162.25;5073146;28;20208;-55
2024/01/16 06:59:38;;;;;;;1.37;0.83;;;;;;;2.30;100.00;63157.34;5073340;28;20187;-55
2024/01/16 07:02:03;;;;;;;1.90;1.10;;;;;;;2.15;100.00;63143.56;5072978;28;20277;-53
2024/01/16 07:04:29;;;;;;;1.47;0.90;;;;;;;2.18;100.00;63146.28;5073201;28;20189;-56
2024/01/16 07:06:55;;;;;;;1.10;1.00;;;;;;;2.15;100.00;63138.06;5073067;28;20217;-55
2024/01/16 07:09:20;;;;;;;1.33;1.23;;;;;;;2.13;100.00;63141.41;5055040;28;20208;-53
2024/01/16 07:11:47;;;;;;;1.67;1.10;;;;;;;2.12;100.00;63140.31;5055052;28;20197;-53
2024/01/16 07:14:13;;;;;;;1.13;0.80;;;;;;;2.20;100.00;63145.97;5073073;28;20185;-54
2024/01/16 07:16:39;;;;;;;1.20;1.10;;;;;;;2.27;100.00;63153.56;5073189;28;20193;-53
2024/01/16 07:19:05;;;;;;;1.50;1.33;;;;;;;2.18;100.00;63146.81;5073039;28;20196;-53
2024/01/16 07:21:31;;;;;;;1.20;1.07;;;;;;;2.24;100.00;63150.31;5072899;28;20564;-53
2024/01/16 07:23:57;;;;;;;2.77;1.60;;;;;;;2.22;100.00;63148.16;5054777;28;20221;-53
2024/01/16 07:26:24;;;;;;;1.10;1.00;;;;;;;2.27;100.00;63154.13;5072818;28;20197;-54
2024/01/16 07:28:49;;;;;;;1.77;1.33;;;;;;;2.17;100.00;63143.25;5072754;28;20220;-55
2024/01/16 07:31:19;;;;;;;2.00;1.03;;;;;;;2.10;100.00;63138.16;5072775;28;20197;-53
2024/01/16 07:33:45;;;;;;;1.80;1.30;;;;;;;2.11;100.00;63138.69;5072801;28;20216;-53
2024/01/16 07:36:11;;;;;;;3.07;1.47;;;;;;;2.14;100.00;63142.47;5072854;28;20193;-52
2024/01/16 07:38:37;;;;;;;2.60;1.20;;;;;;;2.14;100.00;63141.97;5072666;28;20270;-53
2024/01/16 07:41:03;;;;;;;1.13;1.03;;;;;;;2.16;100.00;63144.13;5072450;28;20185;-54
2024/01/16 07:43:29;;;;;;;1.07;1.00;;;;;;;2.08;100.00;63135.44;5072546;28;20236;-54
2024/01/16 07:45:55;;;;;;;1.10;0.90;;;;;;;2.00;100.00;63124.81;5054431;28;20223;-52
2024/01/16 07:48:22;;;;;;;4.40;1.00;;;;;;;2.00;100.00;63124.81;5072351;28;20212;-53
2024/01/16 07:50:48;;;;;;;1.20;1.10;;;;;;;2.04;100.00;63131.09;5072392;28;20266;-53
2024/01/16 07:53:15;;;;;;;4.37;1.10;;;;;;;2.00;100.00;63126.78;5054237;28;20345;-53
2024/01/16 07:55:43;;;;;;;1.83;1.23;;;;;;;2.05;100.00;63132.19;5054312;28;20685;-55
2024/01/16 07:58:13;;;;;;;1.27;1.17;;;;;;;2.12;100.00;63139.78;5073017;28;20205;-53
2024/01/16 08:00:39;;;;;;;1.00;0.90;;;;;;;2.08;100.00;63135.97;5072158;28;20189;-53
2024/01/16 08:03:11;;;;;;;1.63;1.30;;;;;;;2.10;100.00;63137.63;5071136;28;20216;-55
2024/01/16 08:05:39;;;;;;;3.33;1.30;;;;;;;2.23;100.00;63151.72;5072149;28;20185;-53
2024/01/16 08:08:05;;;;;;;2.00;1.50;;;;;;;2.22;100.00;63151.16;5072316;28;20249;-54
2024/01/16 08:10:31;;;;;;;1.23;1.00;;;;;;;2.24;100.00;63155.28;5072195;28;20192;-54
2024/01/16 08:12:57;;;;;;;2.73;1.37;;;;;;;2.27;100.00;63154.13;5072130;28;20730;-53
2024/01/16 08:15:22;;;;;;;3.83;1.97;;;;;;;2.40;100.00;63165.19;5072038;28;20215;-54
2024/01/16 08:17:48;;;;;;;2.33;1.40;;;;;;;2.36;100.00;63165.81;5071795;28;20299;-53
2024/01/16 08:20:14;;;;;;;1.50;1.40;;;;;;;2.26;100.00;63154.97;5072050;28;20267;-54
2024/01/16 08:22:39;;;;;;;2.07;1.40;;;;;;;2.28;100.00;63155.19;5053929;28;20370;-53
2024/01/16 08:25:05;;;;;;;2.43;1.37;;;;;;;2.31;100.00;63160.38;5071877;28;20242;-54
2024/01/16 08:27:31;;;;;;;1.87;1.40;;;;;;;2.34;100.00;63163.66;5071971;28;20252;-54
2024/01/16 08:29:57;;;;;;;1.33;1.20;;;;;;;2.40;100.00;63170.69;5071776;28;20273;-55
2024/01/16 08:32:22;;;;;;;1.37;1.10;;;;;;;2.25;100.00;63151.94;5053862;28;20255;-55
2024/01/16 08:34:48;;;;;;;1.50;0.97;;;;;;;2.18;100.00;63148.78;5071804;28;20613;-53
2024/01/16 08:37:14;;;;;;;1.30;1.20;;;;;;;2.12;100.00;63137.31;5071518;28;20282;-55
2024/01/16 08:39:40;;;;;;;1.37;1.27;;;;;;;2.06;100.00;63133.81;5071633;28;20257;-53
2024/01/16 08:42:06;;;;;;;2.20;1.20;;;;;;;1.96;100.00;63119.94;5071950;28;20545;-54
2024/01/16 08:44:31;;;;;;;1.43;1.27;;;;;;;2.09;100.00;63137.06;5071415;28;20221;-54
2024/01/16 08:46:59;;;;;;;1.83;1.50;;;;;;;2.12;100.00;63139.78;5071750;28;20221;-56
2024/01/16 08:49:24;;;;;;;1.73;1.50;;;;;;;2.09;100.00;63136.53;5053531;28;20213;-57
2024/01/16 08:51:50;;;;;;;2.50;1.40;;;;;;;2.10;100.00;63138.16;5071559;28;20636;-54
2024/01/16 08:54:16;;;;;;;1.63;1.10;;;;;;;2.06;100.00;63133.28;5053348;28;20214;-55
2024/01/16 08:56:41;;;;;;;1.30;1.00;;;;;;;1.93;100.00;63117.22;5071266;28;20594;-53
2024/01/16 08:59:13;;;;;;;2.70;1.40;;;;;;;2.04;100.00;63129.16;5053376;28;20211;-54
2024/01/16 09:01:41;;;;;;;3.43;1.10;;;;;;;1.85;100.00;63110.50;5071449;28;20203;-54
2024/01/16 09:04:07;;;;;;;1.30;1.20;;;;;;;1.77;100.00;63104.28;5037307;28;20350;-53
2024/01/16 09:06:33;;;;;;;2.17;1.47;;;;;;;1.84;100.00;63107.47;5071329;28;20320;-53
2024/01/16 09:08:59;;;;;;;1.70;1.10;;;;;;;1.83;100.00;63108.31;5053710;28;20204;-55
2024/01/16 09:11:25;;;;;;;1.77;0.90;;;;;;;2.03;100.00;63130.56;5071193;28;20208;-54
2024/01/16 09:13:51;;;;;;;1.10;1.00;;;;;;;2.01;100.00;63127.84;5070544;28;20297;-56
2024/01/16 09:16:17;;;;;;;1.23;1.03;;;;;;;2.18;100.00;63146.28;5071230;28;20196;-54
2024/01/16 09:18:44;;;;;;;0.80;0.80;;;;;;;2.05;100.00;63130.25;5053035;28;20221;-54
2024/01/16 09:21:10;;;;;;;1.30;1.20;;;;;;;2.18;100.00;63143.81;5053315;28;20284;-54
2024/01/16 09:23:35;;;;;;;3.67;1.53;;;;;;;2.06;100.00;63133.81;5069043;28;20289;-55
2024/01/16 09:26:01;;;;;;;1.20;1.10;;;;;;;2.11;100.00;63138.69;5068993;28;20204;-54
2024/01/16 09:28:28;;;;;;;1.17;1.07;;;;;;;2.30;100.00;63159.84;5051710;28;20293;-55
2024/01/16 09:30:55;;;;;;;2.37;1.07;;;;;;;2.21;100.00;63149.53;5069734;28;20627;-60
2024/01/16 09:33:25;;;;;;;1.80;1.30;;;;;;;2.26;100.00;63154.97;5051751;28;20216;-57
2024/01/16 09:35:51;;;;;;;1.63;1.20;;;;;;;2.30;100.00;63162.31;5069686;28;20189;-54
2024/01/16 09:38:17;;;;;;;1.97;1.13;;;;;;;2.15;100.00;63146.06;5070367;28;20224;-53
2024/01/16 09:40:44;;;;;;;1.93;1.30;;;;;;;2.16;100.00;63141.66;5052880;28;20673;-52
2024/01/16 09:43:11;;;;;;;1.97;1.30;;;;;;;2.19;100.00;63147.91;5069935;28;20205;-53
2024/01/16 09:45:39;;;;;;;2.40;1.40;;;;;;;2.44;100.00;63175.03;5069689;28;20197;-52
2024/01/16 09:48:07;;;;;;;2.60;1.40;;;;;;;2.69;100.00;63201.09;5069106;28;20254;-52
2024/01/16 09:50:33;;;;;;;4.97;1.27;;;;;;;2.77;100.00;63210.31;5050925;28;20405;-53
2024/01/16 09:52:59;;;;;;;1.60;1.50;;;;;;;2.94;98.68;63228.78;5051271;28;20215;-53
2024/01/16 09:55:24;;;;;;;1.40;1.30;;;;;;;2.74;99.21;63206.53;5069322;28;20577;-53
2024/01/16 09:57:53;;;;;;;1.97;1.37;;;;;;;2.53;99.45;63181.78;5069133;28;20270;-52
2024/01/16 10:00:19;;;;;;;2.20;1.40;;;;;;;2.77;98.89;63210.31;5070374;28;20192;-54
2024/01/16 10:02:46;;;;;;;3.00;1.70;;;;;;;2.94;97.28;63225.75;5070817;28;20221;-54
2024/01/16 10:05:12;;;;;;;1.77;1.20;;;;;;;2.98;96.10;63230.09;5070478;28;20200;-53
2024/01/16 10:07:41;;;;;;;3.73;1.57;;;;;;;3.42;92.85;63280.91;5052394;28;20259;-52
2024/01/16 10:10:10;;;;;;;2.00;1.23;;;;;;;3.20;92.11;63256.47;5070473;28;20261;-54
2024/01/16 10:12:37;;;;;;;1.63;1.50;;;;;;;3.20;91.28;63256.47;5070747;28;20220;-54
2024/01/16 10:15:08;;;;;;;2.00;1.27;;;;;;;3.16;90.12;63252.69;5070416;28;20192;-55
2024/01/16 10:17:43;;;;;;;3.13;1.40;;;;;;;3.19;90.17;63252.91;5070555;28;20217;-54
2024/01/16 10:20:13;;;;;;;2.10;1.60;;;;;;;3.45;87.95;63283.09;5052485;28;20201;-59
2024/01/16 10:22:51;;;;;;;1.80;1.20;;;;;;;4.00;85.25;63342.88;5052466;28;20226;-54
2024/01/16 10:25:19;;;;;;;2.93;1.70;;;;;;;4.06;83.66;63346.91;5052949;28;20653;-52
2024/01/16 10:27:46;;;;;;;3.30;1.70;;;;;;;3.73;83.34;63313.53;5073840;28;20205;-53
2024/01/16 10:30:12;;;;;;;3.37;1.60;;;;;;;3.73;85.57;63313.53;5073802;28;20189;-53
2024/01/16 10:32:40;;;;;;;4.07;1.40;;;;;;;3.85;83.82;63329.06;5073911;28;20652;-55
2024/01/16 10:35:10;;;;;;;4.00;1.50;;;;;;;3.83;83.62;63324.38;5073671;28;20311;-56
2024/01/16 10:37:50;;;;;;;1.67;1.47;;;;;;;4.31;80.83;63374.06;5074100;28;20266;-55
2024/01/16 10:40:22;;;;;;;6.07;1.80;;;;;;;4.48;78.85;63395.06;5073585;28;20181;-56
2024/01/16 10:43:08;;;;;;;2.57;1.33;;;;;;;4.82;76.07;63429.00;5073618;28;20233;-53
2024/01/16 10:45:34;;;;;;;3.37;1.47;;;;;;;5.35;73.65;63486.69;5073336;28;20299;-54
2024/01/16 10:48:07;;;;;;;1.70;1.17;;;;;;;5.51;71.81;63508.56;5073232;28;20656;-55
2024/01/16 10:50:34;;;;;;;2.10;1.30;;;;;;;5.80;69.59;63535.13;5073353;28;20188;-55
2024/01/16 10:53:04;;;;;;;1.60;1.20;;;;;;;5.75;69.15;63529.69;5055529;28;20223;-55
2024/01/16 10:55:31;;;;;;;1.87;1.57;;;;;;;6.15;68.45;63572.75;5055431;28;20270;-56
2024/01/16 10:58:00;;;;;;;3.97;1.37;;;;;;;6.38;66.48;63598.34;5073724;28;20213;-54
2024/01/16 11:00:28;;;;;;;1.57;1.20;;;;;;;6.25;65.48;63583.66;5039176;28;20184;-55
2024/01/16 11:03:11;;;;;;;1.00;1.00;;;;;;;6.55;62.51;63618.84;5055300;28;20240;-54
2024/01/16 11:05:37;;;;;;;1.30;1.20;;;;;;;6.08;66.20;63567.63;5073367;28;20712;-54
2024/01/16 11:08:05;;;;;;;2.67;1.30;;;;;;;5.60;66.57;63513.91;5055263;28;20248;-54
2024/01/16 11:10:32;;;;;;;1.70;1.27;;;;;;;5.30;68.84;63480.69;5072810;28;20197;-54
2024/01/16 11:13:01;;;;;;;3.70;1.43;;;;;;;5.39;70.02;63490.50;5073095;28;20208;-56
2024/01/16 11:15:31;;;;;;;2.83;1.23;;;;;;;5.53;68.49;63505.75;5054133;28;20192;-54
2024/01/16 11:17:57;;;;;;;1.53;1.33;;;;;;;5.37;70.05;63490.81;5071220;28;20213;-58
2024/01/16 11:20:25;;;;;;;6.27;1.70;;;;;;;5.21;70.37;63471.47;5072810;28;20244;-56
2024/01/16 11:22:59;;;;;;;2.83;1.50;;;;;;;5.29;71.73;63480.16;5072654;28;20273;-56
2024/01/16 11:25:34;;;;;;;1.83;1.50;;;;;;;5.53;71.06;63505.75;5072821;28;20197;-54
2024/01/16 11:28:13;;;;;;;2.47;1.60;;;;;;;4.87;72.78;63432.50;5071763;28;20738;-54
2024/01/16 11:30:39;;;;;;;2.70;1.67;;;;;;;4.35;74.60;63378.44;5072761;28;20191;-54
2024/01/16 11:33:05;;;;;;;1.87;1.50;;;;;;;4.57;75.21;63402.34;5054802;28;20674;-54
2024/01/16 11:35:36;;;;;;;1.93;1.37;;;;;;;5.00;74.05;63451.09;5072969;28;20198;-55